Lebanon Municipal Airport Lebanon US
ICAO: KLEB
IATA: LEB
Category: Medium
Scheduled Services: Yes

Elevation: 603 ft
TransAlt. 18000 ft.

Airport Communications:
BOSTON APP/DEP:134.7
ASOS:118.65
ATIS:118.65
CTAF:125.95
GND:121.6
BANGOR RDO:122.2
TWR:125.95
UNICOM:122.95

KLEB Zoom In..

If you have problems with the map follow the link
https://www.worldairports.se/pages/airport.php?
ICAO=KLEB

Runways:

(A) RW 07 length 5496 ft width 100 ft
---- / hdg 75

(B) RW 18 length 5200 ft width 100 ft
ILS 111.90 / hdg 184

(C) RW 25 length 5496 ft width 100 ft
---- / hdg 255

(D) RW 36 length 5200 ft width 100 ft
---- / hdg 4

Location; KLEB
Day. 21 / Time. 17.53 Zulu
* Altimeter: 29.89
* Temperature: 04° c. 39.2°f.
* Wind from: 330° Speed 13 kn with Gusts up to 19 kn.
Dewpoint: -06° c.
Visibility: 10 Statute Miles.
Clouds: Overcast 3700 ft.

KLEB 211753Z 33013G19KT 10SM OVC037 04/M06 A2989 RMK AO2 SLP125 T00391061 10039 20033 51008


Wind From 330°
Speed 13 kn.

 
 
jpsmedia.com for Web Design worldairports.se 2018   terms of use